createdAt,value
2023-03-19T00:02:49.896Z,97900.75
2023-03-19T00:05:54.063Z,97894.38
2023-03-19T00:08:56.883Z,97899.44
2023-03-19T00:12:01.061Z,97895.41
2023-03-19T00:15:03.956Z,97899.97
2023-03-19T00:18:07.680Z,97902.63
2023-03-19T00:21:10.805Z,97896.72
2023-03-19T00:24:14.072Z,97892.44
2023-03-19T00:27:18.805Z,97890.72
2023-03-19T00:30:22.732Z,97889.34
2023-03-19T00:33:26.534Z,97893.34
2023-03-19T00:36:30.372Z,97898.69
2023-03-19T00:39:33.660Z,97890.41
2023-03-19T00:42:37.840Z,97896.88
2023-03-19T00:45:41.451Z,97896.34
2023-03-19T00:48:44.444Z,97898.97
2023-03-19T00:51:47.830Z,97907.25
2023-03-19T00:54:51.063Z,97905.44
2023-03-19T00:57:56.050Z,97903.78
2023-03-19T01:00:58.952Z,97898.97
2023-03-19T01:04:01.811Z,97899.28
2023-03-19T01:07:04.918Z,97897.41
2023-03-19T01:10:08.633Z,97907.16
2023-03-19T01:13:13.308Z,97916.84
2023-03-19T01:16:16.379Z,97914.63
2023-03-19T01:19:20.156Z,97920.00
2023-03-19T01:22:22.986Z,97922.91
2023-03-19T01:25:25.787Z,97925.34
2023-03-19T01:28:30.060Z,97922.66
2023-03-19T01:31:33.003Z,97933.84
2023-03-19T01:34:36.740Z,97927.91
2023-03-19T01:37:39.500Z,97924.34
2023-03-19T01:40:46.032Z,97935.84
2023-03-19T01:43:50.870Z,97946.84
2023-03-19T01:46:54.128Z,97963.44
2023-03-19T01:49:58.345Z,97964.75
2023-03-19T01:53:01.956Z,97969.34
2023-03-19T01:56:09.805Z,97971.44
2023-03-19T01:59:18.457Z,97968.22
2023-03-19T02:02:26.241Z,97964.63
2023-03-19T02:05:29.790Z,97965.78
2023-03-19T02:08:35.016Z,97969.16
2023-03-19T02:11:39.001Z,97973.66
2023-03-19T02:14:43.400Z,97969.53
2023-03-19T02:17:47.576Z,97976.16
2023-03-19T02:20:56.672Z,97980.97
2023-03-19T02:24:08.441Z,97997.72
2023-03-19T02:27:13.129Z,97991.59
2023-03-19T02:30:22.215Z,97993.31
2023-03-19T02:33:25.089Z,97994.13
2023-03-19T02:36:32.911Z,97976.75
2023-03-19T02:39:41.242Z,97971.03
2023-03-19T02:42:45.574Z,97964.34
2023-03-19T02:45:48.825Z,97965.38
2023-03-19T02:48:52.649Z,97961.47
2023-03-19T02:51:55.488Z,97965.78
2023-03-19T02:54:58.293Z,97959.91
2023-03-19T02:58:02.495Z,97960.97
2023-03-19T03:01:06.394Z,97968.47
2023-03-19T03:04:09.647Z,97962.84
2023-03-19T03:07:12.977Z,97968.50
2023-03-19T03:10:15.801Z,97970.69
2023-03-19T03:13:20.016Z,97979.31
2023-03-19T03:16:23.013Z,97977.44
2023-03-19T03:19:25.927Z,97970.00
2023-03-19T03:22:28.995Z,97965.13
2023-03-19T03:25:31.749Z,97966.78
2023-03-19T03:28:35.850Z,97975.16
2023-03-19T03:31:38.763Z,97964.47
2023-03-19T03:34:42.100Z,97962.56
2023-03-19T03:37:44.866Z,97967.69
2023-03-19T03:40:51.588Z,97976.81
2023-03-19T03:43:56.368Z,97971.78
2023-03-19T03:46:59.280Z,97980.59
2023-03-19T03:50:01.990Z,97979.84
2023-03-19T03:53:04.973Z,97987.44
2023-03-19T03:56:08.570Z,97987.91
2023-03-19T03:59:12.934Z,97985.81
2023-03-19T04:02:15.932Z,97991.69
2023-03-19T04:05:19.170Z,97997.59
2023-03-19T04:08:22.605Z,98002.72
2023-03-19T04:11:25.895Z,98002.16
2023-03-19T04:14:30.407Z,98004.06
2023-03-19T04:17:33.310Z,97999.75
2023-03-19T04:20:36.683Z,98005.13
2023-03-19T04:23:39.516Z,98007.59
2023-03-19T04:26:42.463Z,98008.38
2023-03-19T04:29:46.670Z,98004.91
2023-03-19T04:32:49.458Z,98006.75
2023-03-19T04:35:52.324Z,98007.53
2023-03-19T04:38:55.179Z,98011.31
2023-03-19T04:41:58.082Z,98005.88
2023-03-19T04:45:02.400Z,98010.47
2023-03-19T04:48:05.712Z,98017.47
2023-03-19T04:51:09.631Z,98023.38
2023-03-19T04:54:12.523Z,98019.06
2023-03-19T04:57:15.234Z,98020.34
2023-03-19T05:00:20.521Z,98020.63
2023-03-19T05:03:23.440Z,98029.22
2023-03-19T05:06:27.164Z,98028.69
2023-03-19T05:09:30.891Z,98030.84
2023-03-19T05:12:33.824Z,98031.91
2023-03-19T05:15:38.879Z,98030.03
2023-03-19T05:18:43.007Z,98036.66
2023-03-19T05:21:45.792Z,98037.72
2023-03-19T05:24:48.601Z,98040.19
2023-03-19T05:27:51.749Z,98041.81
2023-03-19T05:30:56.035Z,98044.50
2023-03-19T05:33:58.774Z,98038.03
2023-03-19T05:37:01.458Z,98039.91
2023-03-19T05:40:04.537Z,98038.84
2023-03-19T05:43:07.631Z,98047.94
2023-03-19T05:46:11.817Z,98054.69
2023-03-19T05:49:14.867Z,98046.94
2023-03-19T05:52:17.656Z,98058.22
2023-03-19T05:55:20.733Z,98057.91
2023-03-19T05:58:23.833Z,98062.47
2023-03-19T06:01:28.315Z,98058.19
2023-03-19T06:04:31.223Z,98065.16
2023-03-19T06:07:34.226Z,98066.25
2023-03-19T06:10:37.229Z,98061.88
2023-03-19T06:13:40.462Z,98077.44
2023-03-19T06:16:44.652Z,98079.31
2023-03-19T06:19:47.414Z,98078.00
2023-03-19T06:22:50.368Z,98073.16
2023-03-19T06:25:53.163Z,98082.00
2023-03-19T06:28:55.883Z,98080.66
2023-03-19T06:32:00.683Z,98075.28
2023-03-19T06:35:03.703Z,98085.75
2023-03-19T06:38:07.400Z,98073.13
2023-03-19T06:41:10.208Z,98077.16
2023-03-19T06:44:12.962Z,98079.25
2023-03-19T06:47:17.163Z,98080.00
2023-03-19T06:50:20.119Z,98076.06
2023-03-19T06:53:22.894Z,98076.56
2023-03-19T06:56:26.138Z,98071.22
2023-03-19T06:59:28.995Z,98068.22
2023-03-19T07:02:33.095Z,98076.78
2023-03-19T07:05:35.944Z,98073.81
2023-03-19T07:08:38.918Z,98077.78
2023-03-19T07:11:42.053Z,98083.38
2023-03-19T07:14:44.706Z,98084.91
2023-03-19T07:17:49.824Z,98086.47
2023-03-19T07:20:52.979Z,98091.47
2023-03-19T07:23:55.679Z,98085.78
2023-03-19T07:26:58.819Z,98087.03
2023-03-19T07:30:01.679Z,98083.72
2023-03-19T07:33:07.229Z,98086.88
2023-03-19T07:36:11.277Z,98084.06
2023-03-19T07:39:14.450Z,98088.31
2023-03-19T07:42:17.589Z,98090.38
2023-03-19T07:45:20.670Z,98100.25
2023-03-19T07:48:24.725Z,98098.59
2023-03-19T07:51:27.538Z,98097.16
2023-03-19T07:54:31.328Z,98100.81
2023-03-19T07:57:34.024Z,98096.69
2023-03-19T08:00:37.033Z,98106.81
2023-03-19T08:03:41.666Z,98101.56
2023-03-19T08:06:44.593Z,98098.81
2023-03-19T08:09:47.514Z,98094.16
2023-03-19T08:12:50.546Z,98092.44
2023-03-19T08:15:53.673Z,98098.50
2023-03-19T08:18:57.920Z,98103.50
2023-03-19T08:22:00.823Z,98099.13
2023-03-19T08:25:03.878Z,98106.03
2023-03-19T08:28:09.775Z,98093.88
2023-03-19T08:31:14.460Z,98095.06
2023-03-19T08:34:18.840Z,98100.34
2023-03-19T08:37:21.849Z,98103.56
2023-03-19T08:40:25.313Z,98102.31
2023-03-19T08:43:28.100Z,98104.63
2023-03-19T08:46:31.276Z,98109.94
2023-03-19T08:49:35.628Z,98104.47
2023-03-19T08:52:40.339Z,98108.38
2023-03-19T08:55:44.091Z,98105.41
2023-03-19T08:58:46.977Z,98116.84
2023-03-19T09:01:52.619Z,98122.75
2023-03-19T09:04:56.983Z,98118.13
2023-03-19T09:08:00.184Z,98115.41
2023-03-19T09:11:03.153Z,98116.69
2023-03-19T09:14:05.897Z,98114.78
2023-03-19T09:17:09.337Z,98112.63
2023-03-19T09:20:14.156Z,98116.91
2023-03-19T09:23:16.874Z,98117.47
2023-03-19T09:26:19.571Z,98110.25
2023-03-19T09:29:22.583Z,98113.41
2023-03-19T09:32:25.878Z,98107.63
2023-03-19T09:35:31.460Z,98100.50
2023-03-19T09:38:34.652Z,98106.41
2023-03-19T09:41:47.671Z,98100.56
2023-03-19T09:44:53.628Z,98103.94
2023-03-19T09:48:04.300Z,98109.59
2023-03-19T09:51:16.093Z,98100.97
2023-03-19T09:54:28.767Z,98101.78
2023-03-19T09:57:33.231Z,98102.75
2023-03-19T10:00:38.204Z,98105.75
2023-03-19T10:03:47.356Z,98097.31
2023-03-19T10:07:00.543Z,98091.56
2023-03-19T10:10:33.682Z,98087.09
2023-03-19T10:13:54.508Z,98087.72
2023-03-19T10:17:01.955Z,98078.47
2023-03-19T10:20:10.545Z,98083.91
2023-03-19T10:23:42.789Z,98087.09
2023-03-19T10:26:47.318Z,98087.03
2023-03-19T10:29:50.242Z,98084.50
2023-03-19T10:32:58.947Z,98072.31
2023-03-19T10:36:06.989Z,98076.19
2023-03-19T10:39:14.428Z,98070.69
2023-03-19T10:42:41.227Z,98069.00
2023-03-19T10:45:44.349Z,98062.13
2023-03-19T10:48:47.657Z,98057.03
2023-03-19T10:51:51.047Z,98055.09
2023-03-19T10:55:02.208Z,98057.25
2023-03-19T10:58:07.348Z,98051.91
2023-03-19T11:01:13.583Z,98057.19
2023-03-19T11:04:19.803Z,98049.84
2023-03-19T11:07:34.673Z,98048.41
2023-03-19T11:10:48.048Z,98048.16
2023-03-19T11:13:50.968Z,98055.44
2023-03-19T11:16:58.411Z,98043.09
2023-03-19T11:20:19.316Z,98047.28
2023-03-19T11:23:22.248Z,98052.75
2023-03-19T11:26:28.651Z,98049.28
2023-03-19T11:29:32.183Z,98044.84
2023-03-19T11:33:04.942Z,98039.41
2023-03-19T11:36:13.996Z,98035.75
2023-03-19T11:39:28.111Z,98045.19
2023-03-19T11:42:47.154Z,98031.84
2023-03-19T11:46:01.120Z,98031.88
2023-03-19T11:49:22.178Z,98028.03
2023-03-19T11:52:32.005Z,98032.81
2023-03-19T11:55:42.403Z,98018.84
2023-03-19T11:59:07.905Z,98019.56
2023-03-19T12:02:37.919Z,98019.50
2023-03-19T12:05:50.839Z,98016.84
2023-03-19T12:09:01.064Z,98004.50
2023-03-19T12:12:15.338Z,98004.03
2023-03-19T12:15:25.933Z,98005.16
2023-03-19T12:18:47.103Z,98009.81
2023-03-19T12:22:00.178Z,98000.25
2023-03-19T12:25:24.099Z,98006.31
2023-03-19T12:28:30.546Z,98007.81
2023-03-19T12:31:52.201Z,98010.97
2023-03-19T12:34:58.567Z,98007.19
2023-03-19T12:38:08.070Z,98013.38
2023-03-19T12:41:12.972Z,98018.06
2023-03-19T12:44:21.917Z,98018.56
2023-03-19T12:47:31.302Z,98020.91
2023-03-19T12:50:39.629Z,98012.50
2023-03-19T12:53:48.540Z,98026.66
2023-03-19T12:56:59.636Z,98022.50
2023-03-19T13:00:07.848Z,98024.47
2023-03-19T13:03:19.334Z,98040.66
2023-03-19T13:06:28.158Z,98037.56
2023-03-19T13:09:35.326Z,98050.97
2023-03-19T13:12:39.684Z,98052.81
2023-03-19T13:15:48.345Z,98045.91
2023-03-19T13:19:03.589Z,98053.56
2023-03-19T13:22:11.962Z,98059.69
2023-03-19T13:25:21.080Z,98059.84
2023-03-19T13:28:29.768Z,98041.84
2023-03-19T13:31:36.878Z,98044.72
2023-03-19T13:34:41.357Z,98041.00
2023-03-19T13:37:45.298Z,98031.09
2023-03-19T13:40:50.416Z,98036.59
2023-03-19T13:43:54.317Z,98037.28
2023-03-19T13:46:57.733Z,98035.28
2023-03-19T13:50:25.112Z,98029.69
2023-03-19T13:53:40.883Z,98037.00
2023-03-19T13:57:31.377Z,98035.91
2023-03-19T14:00:58.329Z,98034.50
2023-03-19T14:04:04.084Z,98040.09
2023-03-19T14:07:20.328Z,98043.00
2023-03-19T14:10:29.661Z,98033.91
2023-03-19T14:13:36.221Z,98031.69
2023-03-19T14:16:43.565Z,98029.09
2023-03-19T14:19:46.894Z,98026.94
2023-03-19T14:23:12.984Z,98022.78
2023-03-19T14:26:19.528Z,98020.97
2023-03-19T14:29:26.432Z,98021.16
2023-03-19T14:32:35.446Z,98014.69
2023-03-19T14:35:45.404Z,98026.03
2023-03-19T14:38:53.111Z,98023.00
2023-03-19T14:42:01.821Z,98024.28
2023-03-19T14:45:44.171Z,98020.75
2023-03-19T14:49:17.319Z,98035.47
2023-03-19T14:52:24.013Z,98033.69
2023-03-19T14:55:37.258Z,98043.00
2023-03-19T14:58:49.923Z,98034.38
2023-03-19T15:01:54.596Z,98034.31
2023-03-19T15:05:00.510Z,98032.63
2023-03-19T15:08:06.210Z,98032.09
2023-03-19T15:11:25.631Z,98030.06
2023-03-19T15:14:49.087Z,98045.47
2023-03-19T15:18:03.855Z,98045.13
2023-03-19T15:21:07.914Z,98043.53
2023-03-19T15:24:17.379Z,98046.91
2023-03-19T15:27:22.973Z,98047.41
2023-03-19T15:30:29.272Z,98045.63
2023-03-19T15:33:40.872Z,98042.75
2023-03-19T15:36:45.422Z,98048.06
2023-03-19T15:39:52.735Z,98054.13
2023-03-19T15:42:59.507Z,98053.13
2023-03-19T15:46:02.860Z,98067.97
2023-03-19T15:49:11.204Z,98072.13
2023-03-19T15:52:19.393Z,98064.44
2023-03-19T15:55:22.409Z,98070.75
2023-03-19T15:58:30.186Z,98069.59
2023-03-19T16:01:34.982Z,98071.84
2023-03-19T16:05:01.913Z,98087.44
2023-03-19T16:08:02.364Z,98093.03
2023-03-19T16:11:17.237Z,98107.91
2023-03-19T16:14:27.430Z,98113.22
2023-03-19T16:17:36.262Z,98121.13
2023-03-19T16:20:45.445Z,98132.94
2023-03-19T16:23:53.957Z,98131.03
2023-03-19T16:26:58.648Z,98129.00
2023-03-19T16:30:03.562Z,98135.28
2023-03-19T16:33:07.649Z,98136.75
2023-03-19T16:36:14.270Z,98147.63
2023-03-19T16:39:39.087Z,98151.50
2023-03-19T16:42:43.206Z,98152.88
2023-03-19T16:46:33.222Z,98149.56
2023-03-19T16:50:01.410Z,98146.72
2023-03-19T17:02:25.086Z,98167.91
2023-03-19T17:05:29.625Z,98159.84
2023-03-19T17:18:00.633Z,98174.97
2023-03-19T17:26:42.918Z,98186.41
2023-03-19T17:29:46.125Z,98193.47
2023-03-19T17:32:50.981Z,98202.78
2023-03-19T17:35:56.805Z,98206.78
2023-03-19T17:38:59.523Z,98213.13
2023-03-19T17:42:02.186Z,98219.75
2023-03-19T17:45:05.324Z,98226.31
2023-03-19T17:48:15.701Z,98227.69
2023-03-19T17:51:20.536Z,98225.16
2023-03-19T17:54:25.783Z,98229.41
2023-03-19T17:57:28.376Z,98234.38
2023-03-19T18:00:31.212Z,98233.66
2023-03-19T18:03:36.217Z,98232.94
2023-03-19T18:06:43.022Z,98227.41
2023-03-19T18:09:45.787Z,98220.34
2023-03-19T18:12:49.311Z,98219.84
2023-03-19T18:15:51.993Z,98220.91
2023-03-19T18:18:55.201Z,98228.16
2023-03-19T18:21:59.398Z,98227.22
2023-03-19T18:25:02.083Z,98237.44
2023-03-19T18:28:05.260Z,98234.31
2023-03-19T18:31:15.532Z,98235.38
2023-03-19T18:34:18.744Z,98237.56
2023-03-19T18:37:23.163Z,98241.94
2023-03-19T18:40:27.985Z,98235.31
2023-03-19T18:43:30.777Z,98238.81
2023-03-19T18:46:34.962Z,98244.44
2023-03-19T18:49:37.623Z,98238.84
2023-03-19T18:52:41.895Z,98245.53
2023-03-19T18:55:45.183Z,98238.22
2023-03-19T18:58:48.668Z,98254.41
2023-03-19T19:01:52.233Z,98254.94
2023-03-19T19:04:54.916Z,98260.06
2023-03-19T19:08:00.937Z,98255.03
2023-03-19T19:11:05.566Z,98259.31
2023-03-19T19:14:16.547Z,98269.00
2023-03-19T19:17:24.050Z,98277.44
2023-03-19T19:20:28.380Z,98278.03
2023-03-19T19:23:32.540Z,98280.19
2023-03-19T19:26:37.090Z,98277.56
2023-03-19T19:29:39.743Z,98274.06
2023-03-19T19:32:42.531Z,98280.31
2023-03-19T19:35:45.524Z,98277.91
2023-03-19T19:38:51.884Z,98283.09
2023-03-19T19:41:56.062Z,98284.75
2023-03-19T19:44:59.319Z,98281.56
2023-03-19T19:48:01.933Z,98279.72
2023-03-19T19:51:04.773Z,98280.28
2023-03-19T19:54:08.763Z,98288.63
2023-03-19T19:57:19.244Z,98288.44
2023-03-19T20:00:23.679Z,98294.88
2023-03-19T20:03:28.282Z,98302.16
2023-03-19T20:06:30.944Z,98305.38
2023-03-19T20:09:34.973Z,98309.44
2023-03-19T20:12:37.651Z,98311.56
2023-03-19T20:15:40.311Z,98311.56
2023-03-19T20:18:43.558Z,98313.19
2023-03-19T20:21:46.516Z,98311.31
2023-03-19T20:24:51.597Z,98321.78
2023-03-19T20:27:58.151Z,98327.69
2023-03-19T20:31:01.526Z,98334.38
2023-03-19T20:34:04.167Z,98326.00
2023-03-19T20:37:06.839Z,98324.13
2023-03-19T20:40:12.428Z,98323.84
2023-03-19T20:43:27.952Z,98329.22
2023-03-19T20:46:31.194Z,98332.19
2023-03-19T20:49:33.791Z,98335.13
2023-03-19T20:52:36.441Z,98334.84
2023-03-19T20:55:42.527Z,98339.69
2023-03-19T20:58:46.438Z,98347.47
2023-03-19T21:01:49.142Z,98350.97
2023-03-19T21:04:51.892Z,98350.97
2023-03-19T21:07:55.516Z,98348.81
2023-03-19T21:10:59.842Z,98351.19
2023-03-19T21:14:02.671Z,98349.84
2023-03-19T21:17:05.405Z,98352.56
2023-03-19T21:20:08.927Z,98350.41
2023-03-19T21:23:19.674Z,98355.53
2023-03-19T21:26:27.407Z,98354.44
2023-03-19T21:29:34.259Z,98362.81
2023-03-19T21:32:37.031Z,98368.72
2023-03-19T21:35:39.907Z,98369.56
2023-03-19T21:38:43.603Z,98371.41
2023-03-19T21:41:48.324Z,98369.78
2023-03-19T21:44:57.820Z,98367.94
2023-03-19T21:48:21.012Z,98371.94
2023-03-19T21:51:25.074Z,98370.34
2023-03-19T21:54:27.857Z,98377.56
2023-03-19T21:57:32.519Z,98372.75
2023-03-19T22:00:36.088Z,98377.59
2023-03-19T22:03:38.879Z,98379.72
2023-03-19T22:06:43.031Z,98373.53
2023-03-19T22:09:46.366Z,98378.94
2023-03-19T22:12:51.165Z,98366.88
2023-03-19T22:15:55.625Z,98368.19
2023-03-19T22:18:58.658Z,98379.69
2023-03-19T22:22:01.758Z,98384.53
2023-03-19T22:25:04.689Z,98384.81
2023-03-19T22:28:16.658Z,98390.44
2023-03-19T22:31:19.529Z,98392.31
2023-03-19T22:34:24.513Z,98396.38
2023-03-19T22:37:28.728Z,98397.97
2023-03-19T22:40:31.518Z,98409.50
2023-03-19T22:43:37.329Z,98421.59
2023-03-19T22:46:40.226Z,98426.19
2023-03-19T22:49:44.984Z,98427.25
2023-03-19T22:52:47.794Z,98426.16
2023-03-19T22:55:50.578Z,98425.91
2023-03-19T22:58:54.733Z,98428.31
2023-03-19T23:01:58.088Z,98431.81
2023-03-19T23:05:02.333Z,98434.50
2023-03-19T23:08:06.751Z,98434.50
2023-03-19T23:11:09.640Z,98427.78
2023-03-19T23:14:26.361Z,98422.97
2023-03-19T23:17:31.490Z,98426.16
2023-03-19T23:20:34.408Z,98428.34
2023-03-19T23:23:37.573Z,98427.25
2023-03-19T23:26:44.323Z,98425.91
2023-03-19T23:29:48.395Z,98427.28
2023-03-19T23:32:51.410Z,98417.88
2023-03-19T23:35:55.048Z,98416.81
2023-03-19T23:38:59.294Z,98412.50
2023-03-19T23:42:02.163Z,98406.63
2023-03-19T23:45:07.863Z,98405.00
2023-03-19T23:48:15.286Z,98406.63
2023-03-19T23:51:18.268Z,98407.16
2023-03-19T23:54:29.966Z,98408.50
2023-03-19T23:57:33.209Z,98404.22
